Time;durP1;ratioP1;P1;durP2;ratioP2;P2;SDS_P1;SDS_P2;PMS_P1;PMS_P2;Temp;Humidity;BMP_temperature;BMP_pressure;BME280_temperature;BME280_humidity;BME280_pressure;Samples;Min_cycle;Max_cycle;Signal;HPM_P1;HPM_P2
2023/05/06 00:01:05;;;;;;;15.03;13.83;;;;;;;12.90;nan;97006.97;4910874;28;21327;-61
2023/05/06 00:03:33;;;;;;;14.50;13.20;;;;;;;12.92;nan;97004.91;4935617;28;20268;-62
2023/05/06 00:06:05;;;;;;;14.80;13.53;;;;;;;12.81;nan;97009.00;4931626;28;20217;-61
2023/05/06 00:08:32;;;;;;;14.03;12.87;;;;;;;12.73;nan;97010.03;4929018;28;20238;-64
2023/05/06 00:11:00;;;;;;;13.80;12.60;;;;;;;12.68;nan;97007.13;4922348;28;20513;-62
2023/05/06 00:13:29;;;;;;;12.63;11.73;;;;;;;12.73;nan;97002.06;4949884;28;20214;-63
2023/05/06 00:15:57;;;;;;;14.30;13.00;;;;;;;12.66;nan;97009.16;4944594;28;20217;-63
2023/05/06 00:18:25;;;;;;;12.43;11.43;;;;;;;12.69;nan;97003.47;4891614;28;20717;-61
2023/05/06 00:20:52;;;;;;;12.93;11.93;;;;;;;12.64;nan;96997.13;4929228;28;20295;-64
2023/05/06 00:23:20;;;;;;;12.77;11.77;;;;;;;12.58;nan;96996.06;4925483;28;20654;-64
2023/05/06 00:25:48;;;;;;;11.83;11.00;;;;;;;12.67;nan;96984.22;4927723;28;20733;-62
2023/05/06 00:28:16;;;;;;;11.67;10.57;;;;;;;12.64;nan;96991.81;4945760;28;20283;-62
2023/05/06 00:30:45;;;;;;;11.77;10.90;;;;;;;12.62;nan;96986.69;4944541;28;20693;-63
2023/05/06 00:33:12;;;;;;;11.70;10.60;;;;;;;12.56;nan;96988.31;4908808;28;20502;-61
2023/05/06 00:35:40;;;;;;;11.63;10.60;;;;;;;12.59;nan;96982.59;4930282;28;20605;-62
2023/05/06 00:38:09;;;;;;;11.20;10.40;;;;;;;12.55;nan;96993.81;4920198;28;20401;-62
2023/05/06 00:40:38;;;;;;;10.70;9.90;;;;;;;12.63;nan;96996.28;4953735;28;20205;-58
2023/05/06 00:43:06;;;;;;;9.77;9.07;;;;;;;12.60;nan;96986.06;4931227;28;20214;-62
2023/05/06 00:45:33;;;;;;;10.57;9.77;;;;;;;12.55;nan;96984.03;4955718;28;20210;-62
2023/05/06 00:48:03;;;;;;;9.90;9.10;;;;;;;12.54;nan;96986.88;4904827;28;25899;-63
2023/05/06 00:50:32;;;;;;;10.00;9.20;;;;;;;12.40;nan;96973.56;4932997;28;20232;-61
2023/05/06 00:53:00;;;;;;;9.47;8.67;;;;;;;12.37;nan;96978.44;4898308;28;21863;-63
2023/05/06 00:55:27;;;;;;;10.03;9.23;;;;;;;12.32;nan;96979.06;4952222;28;20243;-63
2023/05/06 00:57:55;;;;;;;9.67;8.80;;;;;;;12.36;nan;96980.31;4920564;28;20233;-63
2023/05/06 01:00:23;;;;;;;9.40;8.70;;;;;;;12.30;nan;96983.72;4950590;28;20945;-62
2023/05/06 01:02:51;;;;;;;8.37;7.77;;;;;;;12.35;nan;96986.63;4949873;28;20485;-62
2023/05/06 01:05:21;;;;;;;8.90;8.17;;;;;;;12.38;nan;96986.22;4885738;28;20477;-62
2023/05/06 01:07:54;;;;;;;9.17;8.47;;;;;;;12.40;nan;96988.66;4930236;28;20209;-60
2023/05/06 01:10:27;;;;;;;9.20;8.60;;;;;;;12.40;nan;96986.00;4950879;28;20229;-62
2023/05/06 01:13:02;;;;;;;8.43;7.70;;;;;;;12.37;nan;96979.28;4924043;28;20225;-60
2023/05/06 01:15:33;;;;;;;8.67;7.97;;;;;;;12.37;nan;96973.97;4951662;28;20239;-62
2023/05/06 01:18:01;;;;;;;9.30;8.60;;;;;;;12.33;nan;96972.72;4946898;28;20586;-62
2023/05/06 01:20:31;;;;;;;9.27;8.47;;;;;;;12.31;nan;96974.75;4916285;28;20384;-61
2023/05/06 01:22:59;;;;;;;8.23;7.63;;;;;;;12.30;nan;96978.41;4926843;28;20703;-62
2023/05/06 01:25:29;;;;;;;9.50;8.70;;;;;;;12.26;nan;96969.22;4923942;28;20218;-62
2023/05/06 01:27:56;;;;;;;8.33;7.70;;;;;;;12.18;nan;96986.16;4925482;28;21292;-61
2023/05/06 01:30:28;;;;;;;9.27;8.57;;;;;;;12.27;nan;96976.16;4952151;28;20237;-62
2023/05/06 01:33:02;;;;;;;9.03;8.33;;;;;;;12.29;nan;96974.13;4945498;28;20300;-62
2023/05/06 01:35:35;;;;;;;8.60;8.00;;;;;;;12.27;nan;96974.34;4912526;28;20497;-62
2023/05/06 01:38:09;;;;;;;9.13;8.40;;;;;;;12.19;nan;96981.66;4917927;28;20257;-63
2023/05/06 01:40:40;;;;;;;9.57;8.73;;;;;;;12.15;nan;96981.25;4925913;28;20205;-63
2023/05/06 01:43:07;;;;;;;8.70;8.10;;;;;;;12.18;nan;96975.53;4952021;28;20217;-63
2023/05/06 01:45:36;;;;;;;9.13;8.47;;;;;;;12.18;nan;96980.03;4927096;28;20668;-63
2023/05/06 01:48:04;;;;;;;10.43;9.63;;;;;;;12.02;nan;96980.16;4949220;28;22109;-62
2023/05/06 01:50:33;;;;;;;9.13;8.30;;;;;;;12.00;nan;96979.56;4912663;28;20260;-64
2023/05/06 01:53:02;;;;;;;8.93;8.33;;;;;;;11.96;nan;96975.63;4925829;28;20519;-62
2023/05/06 01:55:31;;;;;;;9.57;8.87;;;;;;;11.93;nan;96980.50;4924842;28;20213;-62
2023/05/06 01:58:00;;;;;;;9.40;8.70;;;;;;;12.01;nan;96980.38;4947928;28;20403;-63
2023/05/06 02:00:27;;;;;;;9.73;8.60;;;;;;;12.00;nan;96978.72;4918985;28;21040;-62
2023/05/06 02:02:55;;;;;;;9.87;9.03;;;;;;;12.02;nan;96982.03;4943834;28;20276;-63
2023/05/06 02:05:23;;;;;;;9.63;8.87;;;;;;;11.99;nan;96985.03;4930928;28;20224;-62
2023/05/06 02:07:50;;;;;;;10.43;9.63;;;;;;;12.00;nan;96984.03;4890989;28;20444;-63
2023/05/06 02:10:18;;;;;;;9.20;8.33;;;;;;;12.09;nan;96977.56;4946222;28;20214;-62
2023/05/06 02:12:46;;;;;;;9.90;9.10;;;;;;;12.10;nan;96983.66;4924451;28;20213;-63
2023/05/06 02:15:15;;;;;;;9.67;8.90;;;;;;;12.13;nan;96978.78;4922540;28;20659;-63
2023/05/06 02:17:43;;;;;;;8.73;8.10;;;;;;;12.00;nan;96974.25;4947224;28;20585;-63
2023/05/06 02:20:11;;;;;;;9.47;8.77;;;;;;;12.04;nan;96981.81;4940044;28;20238;-61
2023/05/06 02:22:38;;;;;;;10.13;9.23;;;;;;;12.09;nan;96976.72;4897229;28;20368;-62
2023/05/06 02:25:07;;;;;;;10.67;9.80;;;;;;;12.09;nan;96972.25;4924632;28;21054;-62
2023/05/06 02:27:36;;;;;;;9.63;8.93;;;;;;;12.12;nan;96976.31;4924941;28;20589;-63
2023/05/06 02:30:05;;;;;;;9.50;8.73;;;;;;;12.11;nan;96964.91;4924053;28;20559;-63
2023/05/06 02:32:34;;;;;;;9.47;8.87;;;;;;;12.20;nan;96967.38;4946375;28;20245;-59
2023/05/06 02:35:02;;;;;;;10.20;9.40;;;;;;;12.16;nan;96969.63;4947778;28;20450;-62
2023/05/06 02:37:30;;;;;;;9.23;8.53;;;;;;;12.14;nan;96966.34;4907719;28;20775;-63
2023/05/06 02:39:58;;;;;;;8.73;8.00;;;;;;;12.15;nan;96960.00;4932212;28;20233;-63
2023/05/06 02:42:25;;;;;;;9.73;8.73;;;;;;;12.19;nan;96965.72;4929195;28;20218;-63
2023/05/06 02:44:53;;;;;;;8.60;7.90;;;;;;;12.10;nan;96965.06;4954646;28;20216;-64
2023/05/06 02:47:21;;;;;;;8.67;8.00;;;;;;;12.00;nan;96962.78;4926459;28;20222;-63
2023/05/06 02:49:50;;;;;;;9.07;8.37;;;;;;;11.97;nan;96963.19;4952143;28;20261;-63
2023/05/06 02:52:17;;;;;;;8.87;8.27;;;;;;;11.93;nan;96968.06;4906402;28;21604;-63
2023/05/06 02:54:45;;;;;;;9.07;8.40;;;;;;;11.86;nan;96970.69;4949970;28;20214;-60
2023/05/06 02:57:13;;;;;;;9.70;9.03;;;;;;;11.82;nan;96960.66;4934278;28;20528;-63
2023/05/06 02:59:40;;;;;;;9.37;8.57;;;;;;;11.81;nan;96949.22;4930254;28;20328;-63
2023/05/06 03:02:08;;;;;;;9.20;8.60;;;;;;;11.81;nan;96953.72;4921682;28;20626;-62
2023/05/06 03:04:36;;;;;;;10.40;9.60;;;;;;;11.84;nan;96950.66;4953616;28;20590;-63
2023/05/06 03:07:05;;;;;;;9.43;8.83;;;;;;;11.91;nan;96942.72;4948737;28;20225;-61
2023/05/06 03:09:33;;;;;;;10.07;9.17;;;;;;;11.82;nan;96945.53;4922152;28;20627;-62
2023/05/06 03:12:01;;;;;;;16.07;14.77;;;;;;;11.77;nan;96950.63;4932143;28;20485;-63
2023/05/06 03:14:29;;;;;;;11.60;10.60;;;;;;;11.84;nan;96955.97;4923323;28;20781;-62
2023/05/06 03:16:57;;;;;;;10.33;9.43;;;;;;;11.83;nan;96952.50;4928316;28;20987;-64
2023/05/06 03:19:24;;;;;;;9.87;9.17;;;;;;;11.72;nan;96959.16;4951661;28;20343;-63
2023/05/06 03:21:52;;;;;;;9.83;9.03;;;;;;;11.60;nan;96952.00;4948704;28;20574;-64
2023/05/06 03:24:21;;;;;;;9.80;9.10;;;;;;;11.61;nan;96954.44;4913164;28;21021;-62
2023/05/06 03:26:49;;;;;;;10.23;9.53;;;;;;;11.62;nan;96948.09;4938269;28;20213;-61
2023/05/06 03:29:17;;;;;;;10.40;9.67;;;;;;;11.62;nan;96952.59;4906958;28;20237;-62
2023/05/06 03:31:45;;;;;;;10.90;10.00;;;;;;;11.68;nan;96955.28;4940379;28;20710;-60
2023/05/06 03:34:13;;;;;;;11.00;10.10;;;;;;;11.65;nan;96955.66;4936354;28;20837;-62
2023/05/06 03:36:40;;;;;;;10.77;10.07;;;;;;;11.63;nan;96951.59;4953609;28;20255;-63
2023/05/06 03:39:09;;;;;;;11.13;10.23;;;;;;;11.57;nan;96963.81;4949745;28;20589;-63
2023/05/06 03:41:38;;;;;;;10.53;9.73;;;;;;;11.61;nan;96945.66;4918100;28;20214;-63
2023/05/06 03:44:06;;;;;;;12.17;11.27;;;;;;;11.53;nan;96952.75;4930332;28;20217;-62
2023/05/06 03:46:33;;;;;;;10.67;9.70;;;;;;;11.61;nan;96953.63;4924589;28;20480;-64
2023/05/06 03:49:01;;;;;;;10.37;9.67;;;;;;;11.57;nan;96956.69;4920238;28;20749;-63
2023/05/06 03:51:29;;;;;;;12.40;11.50;;;;;;;11.64;nan;96964.66;4925022;28;20823;-63
2023/05/06 03:53:58;;;;;;;12.43;11.43;;;;;;;11.70;nan;96963.84;4950357;28;20218;-62
2023/05/06 03:56:26;;;;;;;12.60;11.60;;;;;;;11.72;nan;96967.13;4914866;28;21188;-63
2023/05/06 03:58:55;;;;;;;13.00;12.00;;;;;;;11.66;nan;96967.94;4933184;28;20304;-63
2023/05/06 04:01:23;;;;;;;12.73;11.60;;;;;;;11.70;nan;96968.38;4920997;28;20220;-64
2023/05/06 04:03:50;;;;;;;12.30;11.30;;;;;;;11.73;nan;96966.13;4929698;28;20203;-63
2023/05/06 04:06:18;;;;;;;12.70;11.80;;;;;;;11.70;nan;96958.56;4945010;28;20499;-65
2023/05/06 04:08:46;;;;;;;11.87;10.80;;;;;;;11.66;nan;96967.94;4924880;28;20234;-61
2023/05/06 04:11:14;;;;;;;11.60;10.60;;;;;;;11.65;nan;96970.78;4905384;28;20218;-62
2023/05/06 04:13:41;;;;;;;13.73;12.47;;;;;;;11.55;nan;96976.44;4950183;28;20637;-62
2023/05/06 04:16:11;;;;;;;11.53;10.63;;;;;;;11.62;nan;96976.50;4907336;28;21870;-62
2023/05/06 04:18:39;;;;;;;11.90;10.90;;;;;;;11.55;nan;96982.59;4925995;28;20230;-61
2023/05/06 04:21:07;;;;;;;11.37;10.57;;;;;;;11.69;nan;96985.31;4925093;28;20624;-63
2023/05/06 04:23:35;;;;;;;12.13;11.23;;;;;;;11.67;nan;96980.19;4950140;28;20530;-62
2023/05/06 04:26:03;;;;;;;11.93;10.93;;;;;;;11.70;nan;96973.69;4930212;28;20493;-61
2023/05/06 04:28:30;;;;;;;12.30;11.20;;;;;;;11.87;nan;96980.28;4907883;28;20709;-61
2023/05/06 04:30:58;;;;;;;10.93;10.13;;;;;;;11.91;nan;96982.53;4934801;28;20862;-61
2023/05/06 04:33:28;;;;;;;12.53;11.63;;;;;;;11.87;nan;96990.09;4900833;28;20758;-63
2023/05/06 04:35:56;;;;;;;11.93;11.03;;;;;;;11.92;nan;96992.97;4954377;28;20214;-62
2023/05/06 04:38:24;;;;;;;11.80;11.00;;;;;;;12.01;nan;97004.28;4946906;28;20352;-62
2023/05/06 04:40:52;;;;;;;11.30;10.40;;;;;;;12.11;nan;97003.91;4954413;28;20785;-61
2023/05/06 04:43:20;;;;;;;12.47;11.37;;;;;;;12.15;nan;97008.63;4917771;28;20217;-64
2023/05/06 04:45:48;;;;;;;12.23;11.23;;;;;;;12.17;nan;97005.78;4945483;28;20256;-64
2023/05/06 04:48:17;;;;;;;11.47;10.67;;;;;;;12.26;nan;97009.06;4923095;28;20234;-67
2023/05/06 04:50:46;;;;;;;10.90;10.00;;;;;;;12.28;nan;97017.66;4927974;28;20705;-66
2023/05/06 04:53:15;;;;;;;11.77;10.93;;;;;;;12.23;nan;97014.78;4950901;28;20903;-65
2023/05/06 04:55:43;;;;;;;10.93;10.13;;;;;;;12.38;nan;97019.94;4923108;28;20427;-65
2023/05/06 04:58:11;;;;;;;11.17;10.27;;;;;;;12.34;nan;97006.25;4939478;28;20210;-67
2023/05/06 05:00:39;;;;;;;12.33;11.23;;;;;;;12.59;nan;97009.19;4914376;28;20956;-62
2023/05/06 05:03:07;;;;;;;10.17;9.47;;;;;;;12.46;nan;97003.81;4927635;28;20245;-63
2023/05/06 05:05:35;;;;;;;10.73;10.03;;;;;;;12.49;nan;96995.44;4925431;28;20209;-62
2023/05/06 05:08:04;;;;;;;10.67;9.97;;;;;;;12.42;nan;97005.22;4952183;28;20217;-63
2023/05/06 05:10:32;;;;;;;9.77;9.07;;;;;;;12.52;nan;97000.38;4951047;28;20320;-62
2023/05/06 05:13:00;;;;;;;10.30;9.50;;;;;;;12.52;nan;96999.53;4950254;28;20304;-62
2023/05/06 05:15:27;;;;;;;9.60;8.90;;;;;;;12.63;nan;97003.47;4914523;28;20507;-61
2023/05/06 05:17:55;;;;;;;10.13;9.43;;;;;;;12.69;nan;96998.16;4905489;28;20271;-56
2023/05/06 05:20:23;;;;;;;10.23;9.43;;;;;;;12.68;nan;97001.00;4918990;28;21585;-61
2023/05/06 05:22:51;;;;;;;10.07;9.27;;;;;;;12.76;nan;96997.34;4952359;28;20201;-60
2023/05/06 05:25:20;;;;;;;9.47;8.87;;;;;;;12.78;nan;96992.66;4951036;28;20655;-62
2023/05/06 05:27:48;;;;;;;10.93;10.00;;;;;;;12.73;nan;96994.06;4936322;28;20216;-62
2023/05/06 05:30:16;;;;;;;11.63;10.40;;;;;;;12.72;nan;96991.59;4907880;28;20245;-62
2023/05/06 05:32:43;;;;;;;9.43;8.73;;;;;;;12.89;nan;96992.03;4932782;28;20226;-61
2023/05/06 05:35:11;;;;;;;10.27;9.40;;;;;;;12.87;nan;96999.41;4908174;28;20228;-60
2023/05/06 05:37:39;;;;;;;10.40;9.53;;;;;;;12.95;nan;96996.53;4941984;28;20222;-63
2023/05/06 05:40:08;;;;;;;9.47;8.77;;;;;;;12.71;nan;96996.13;4951814;28;20504;-61
2023/05/06 05:42:38;;;;;;;9.70;8.90;;;;;;;12.64;nan;96994.47;4950228;28;20486;-62
2023/05/06 05:45:08;;;;;;;10.17;9.47;;;;;;;12.65;nan;96998.75;4941145;28;20206;-62
2023/05/06 05:47:36;;;;;;;11.40;10.50;;;;;;;12.68;nan;96991.19;4913255;28;20220;-60
2023/05/06 05:50:04;;;;;;;10.13;9.40;;;;;;;12.81;nan;96989.56;4928843;28;20239;-62
2023/05/06 05:52:31;;;;;;;10.27;9.47;;;;;;;12.97;nan;96986.50;4921490;28;20760;-60
2023/05/06 05:54:59;;;;;;;11.93;11.13;;;;;;;13.17;nan;96994.50;4949820;28;20217;-60
2023/05/06 05:57:27;;;;;;;10.87;10.13;;;;;;;13.06;nan;96996.94;4947551;28;20317;-63
2023/05/06 05:59:57;;;;;;;11.20;10.20;;;;;;;13.28;nan;96992.25;4955220;28;20234;-61
2023/05/06 06:02:24;;;;;;;10.63;9.83;;;;;;;13.50;nan;96986.72;4891980;28;20922;-61
2023/05/06 06:04:52;;;;;;;10.80;10.00;;;;;;;13.55;nan;96994.88;4953824;28;20419;-60
2023/05/06 06:07:20;;;;;;;11.37;10.47;;;;;;;13.81;nan;96986.03;4897344;28;20693;-59
2023/05/06 06:09:48;;;;;;;9.93;9.17;;;;;;;13.87;nan;96987.88;4923837;28;20662;-62
2023/05/06 06:12:16;;;;;;;10.33;9.53;;;;;;;14.23;nan;96977.66;4943396;28;20674;-61
2023/05/06 06:14:46;;;;;;;10.07;9.37;;;;;;;14.40;nan;96974.53;4913881;28;20225;-62
2023/05/06 06:17:15;;;;;;;10.13;9.40;;;;;;;14.21;nan;96982.41;4908266;28;20370;-62
2023/05/06 06:19:45;;;;;;;10.87;9.97;;;;;;;14.21;nan;96986.94;4924314;28;20241;-62
2023/05/06 06:22:13;;;;;;;10.17;9.27;;;;;;;14.25;nan;96988.94;4925333;28;20213;-61
2023/05/06 06:24:40;;;;;;;10.23;9.33;;;;;;;14.07;nan;96989.63;4924817;28;21391;-62
2023/05/06 06:27:08;;;;;;;10.10;9.20;;;;;;;13.86;nan;96993.38;4951524;28;20678;-59
2023/05/06 06:29:36;;;;;;;10.43;9.63;;;;;;;13.75;nan;96986.84;4914124;28;20296;-61
2023/05/06 06:32:04;;;;;;;10.33;9.63;;;;;;;14.00;nan;96992.31;4939014;28;20604;-61
2023/05/06 06:34:33;;;;;;;11.97;11.07;;;;;;;13.85;nan;97003.25;4884680;28;20784;-62
2023/05/06 06:37:01;;;;;;;11.23;10.43;;;;;;;13.99;nan;96998.66;4916554;28;20895;-62
2023/05/06 06:39:29;;;;;;;11.50;10.70;;;;;;;14.03;nan;96997.25;4913288;28;20605;-62
2023/05/06 06:41:57;;;;;;;11.43;10.43;;;;;;;14.17;nan;97002.50;4938789;28;20225;-62
2023/05/06 06:44:25;;;;;;;11.47;10.27;;;;;;;14.19;nan;97003.91;4952761;28;20206;-62
2023/05/06 06:46:53;;;;;;;11.27;10.37;;;;;;;14.43;nan;97006.09;4924896;28;20503;-60
2023/05/06 06:49:20;;;;;;;11.10;10.20;;;;;;;14.50;nan;97003.38;4905802;28;20237;-61
2023/05/06 06:51:51;;;;;;;10.23;9.43;;;;;;;14.60;nan;97007.22;4916456;28;20213;-63
2023/05/06 06:54:18;;;;;;;11.17;10.40;;;;;;;14.71;nan;97012.91;4924362;28;20273;-61
2023/05/06 06:56:46;;;;;;;10.40;9.67;;;;;;;15.04;nan;97010.03;4948473;28;20708;-61
2023/05/06 06:59:14;;;;;;;10.50;9.80;;;;;;;15.41;nan;97011.19;4953904;28;20624;-61
2023/05/06 07:01:42;;;;;;;8.83;8.23;;;;;;;15.60;nan;97010.16;4926376;28;20232;-64
2023/05/06 07:04:10;;;;;;;10.63;9.83;;;;;;;15.68;nan;97016.25;4900940;28;20690;-60
2023/05/06 07:06:37;;;;;;;11.20;10.20;;;;;;;15.69;nan;97007.19;4908906;28;20679;-61
2023/05/06 07:09:07;;;;;;;9.83;9.07;;;;;;;15.56;nan;97029.53;4945918;28;20777;-56
2023/05/06 07:11:35;;;;;;;9.40;8.70;;;;;;;15.49;nan;97018.91;4918567;28;20268;-62
2023/05/06 07:14:02;;;;;;;10.23;9.47;;;;;;;15.31;nan;97028.47;4953229;28;20476;-60
2023/05/06 07:16:30;;;;;;;9.80;9.10;;;;;;;15.01;nan;97034.47;4952972;28;20268;-61
2023/05/06 07:18:58;;;;;;;9.47;8.63;;;;;;;14.73;nan;97033.00;4904414;28;20599;-58
2023/05/06 07:21:27;;;;;;;9.87;9.07;;;;;;;14.86;nan;97026.78;4901397;28;20222;-60
2023/05/06 07:23:54;;;;;;;9.63;8.70;;;;;;;15.08;nan;97031.75;4927642;28;20618;-60
2023/05/06 07:26:23;;;;;;;10.60;9.80;;;;;;;15.02;nan;97030.78;4926871;28;20988;-61
2023/05/06 07:28:51;;;;;;;9.80;9.10;;;;;;;15.08;nan;97038.94;4953358;28;20229;-61
2023/05/06 07:31:19;;;;;;;10.67;9.67;;;;;;;14.82;nan;97038.09;4953512;28;20214;-59
2023/05/06 07:33:47;;;;;;;10.63;9.77;;;;;;;15.24;nan;97035.72;4953757;28;20242;-61
2023/05/06 07:36:15;;;;;;;10.33;9.43;;;;;;;15.53;nan;97028.09;4892795;28;21138;-60
2023/05/06 07:38:44;;;;;;;10.10;9.30;;;;;;;15.75;nan;97038.38;4929532;28;20625;-61
2023/05/06 07:41:11;;;;;;;10.10;9.30;;;;;;;16.10;nan;97034.34;4926711;28;20763;-60
2023/05/06 07:43:40;;;;;;;10.50;9.80;;;;;;;16.54;nan;97037.72;4945931;28;20280;-61
2023/05/06 07:46:08;;;;;;;10.47;9.63;;;;;;;16.73;nan;97041.16;4954586;28;20556;-61
2023/05/06 07:48:36;;;;;;;10.03;9.30;;;;;;;16.67;nan;97042.06;4952841;28;20234;-62
2023/05/06 07:51:04;;;;;;;9.40;8.70;;;;;;;16.95;nan;97032.63;4910197;28;20217;-62
2023/05/06 07:53:31;;;;;;;9.30;8.47;;;;;;;17.32;nan;97035.19;4951349;28;20241;-59
2023/05/06 07:56:02;;;;;;;9.47;8.80;;;;;;;17.81;nan;97038.69;4932320;28;20626;-61
2023/05/06 07:58:30;;;;;;;7.93;7.33;;;;;;;17.96;nan;97035.50;4913826;28;20657;-62
2023/05/06 08:01:00;;;;;;;9.23;8.53;;;;;;;17.90;nan;97024.69;4953667;28;20583;-62
2023/05/06 08:03:27;;;;;;;8.17;7.50;;;;;;;17.69;nan;97033.34;4950659;28;20300;-61
2023/05/06 08:05:55;;;;;;;7.93;7.13;;;;;;;18.02;nan;97038.09;4905537;28;20221;-64
2023/05/06 08:08:26;;;;;;;7.77;7.20;;;;;;;16.84;nan;97041.41;4945281;28;20264;-59
2023/05/06 08:10:54;;;;;;;8.30;7.47;;;;;;;17.47;nan;97047.28;4931976;28;20230;-62
2023/05/06 08:13:22;;;;;;;7.73;7.17;;;;;;;17.12;nan;97040.03;4929052;28;20359;-62
2023/05/06 08:15:50;;;;;;;7.10;6.60;;;;;;;17.27;nan;97047.63;4935188;28;20221;-61
2023/05/06 08:18:19;;;;;;;7.47;6.90;;;;;;;17.63;nan;97043.94;4926382;28;20280;-60
2023/05/06 08:20:50;;;;;;;7.73;7.00;;;;;;;17.26;nan;97037.94;4919505;28;20598;-61
2023/05/06 08:23:18;;;;;;;7.23;6.63;;;;;;;17.28;nan;97042.03;4950233;28;20749;-60
2023/05/06 08:25:46;;;;;;;7.60;6.70;;;;;;;17.35;nan;97040.06;4912562;28;20579;-59
2023/05/06 08:28:13;;;;;;;6.70;6.10;;;;;;;17.49;nan;97045.19;4932659;28;20326;-59
2023/05/06 08:30:41;;;;;;;6.20;5.80;;;;;;;17.21;nan;97054.69;4908517;28;20340;-61
2023/05/06 08:33:09;;;;;;;5.57;5.27;;;;;;;17.22;nan;97053.66;4952764;28;20482;-60
2023/05/06 08:35:38;;;;;;;6.73;6.23;;;;;;;17.41;nan;97058.94;4948755;28;20302;-57
2023/05/06 08:38:06;;;;;;;6.03;5.63;;;;;;;18.27;nan;97047.75;4918209;28;20779;-62
2023/05/06 08:40:34;;;;;;;5.27;4.97;;;;;;;17.35;nan;97057.97;4925367;28;20796;-61
2023/05/06 08:43:03;;;;;;;5.90;5.50;;;;;;;17.19;nan;97054.94;4930205;28;20726;-61
2023/05/06 08:45:32;;;;;;;4.50;4.13;;;;;;;17.27;nan;97061.00;4913184;28;20581;-61
2023/05/06 08:48:00;;;;;;;5.47;4.97;;;;;;;17.18;nan;97065.88;4950655;28;20700;-61
2023/05/06 08:50:28;;;;;;;4.37;4.07;;;;;;;17.02;nan;97064.66;4928246;28;20214;-61
2023/05/06 08:52:57;;;;;;;3.97;3.73;;;;;;;16.84;nan;97062.81;4914037;28;20832;-60
2023/05/06 08:55:26;;;;;;;4.33;4.03;;;;;;;16.28;nan;97057.56;4943578;28;20356;-59
2023/05/06 08:57:55;;;;;;;4.77;4.33;;;;;;;16.58;nan;97051.47;4942286;28;20209;-59
2023/05/06 09:00:23;;;;;;;5.25;4.72;;;;;;;16.47;nan;97040.47;4917628;28;20512;-61
2023/05/06 09:02:50;;;;;;;4.63;4.23;;;;;;;16.93;nan;97054.25;4929933;28;20448;-60
2023/05/06 09:05:18;;;;;;;6.93;4.47;;;;;;;17.02;nan;97056.63;4954932;28;20205;-57
2023/05/06 09:07:46;;;;;;;6.87;4.30;;;;;;;17.73;nan;97053.25;4948495;28;20217;-60
2023/05/06 09:10:16;;;;;;;9.53;5.23;;;;;;;18.05;nan;97047.56;4920863;28;20716;-62
2023/05/06 09:12:44;;;;;;;5.20;4.90;;;;;;;18.73;nan;97042.44;4928110;28;20245;-61
2023/05/06 09:15:12;;;;;;;5.00;4.50;;;;;;;18.97;nan;97047.69;4931348;28;20838;-59
2023/05/06 09:17:40;;;;;;;3.40;3.20;;;;;;;18.89;nan;97048.09;4948193;28;20209;-62
2023/05/06 09:20:12;;;;;;;3.17;2.97;;;;;;;18.26;nan;97043.44;4953355;28;20650;-62
2023/05/06 09:22:39;;;;;;;5.37;4.00;;;;;;;17.45;nan;97054.75;4947102;28;20217;-63
2023/05/06 09:25:08;;;;;;;3.17;2.87;;;;;;;17.86;nan;97052.19;4918692;28;20917;-62
2023/05/06 09:27:37;;;;;;;3.47;3.00;;;;;;;17.83;nan;97048.13;4917873;28;20222;-62
2023/05/06 09:30:07;;;;;;;4.43;3.90;;;;;;;17.73;nan;97048.69;4953348;28;20705;-59
2023/05/06 09:32:35;;;;;;;3.50;3.23;;;;;;;18.23;nan;97039.34;4924095;28;20217;-61
2023/05/06 09:35:07;;;;;;;4.37;3.63;;;;;;;18.62;nan;97040.63;4954776;28;20693;-61
2023/05/06 09:37:35;;;;;;;3.27;3.07;;;;;;;18.44;nan;97037.09;4943219;28;20261;-62
2023/05/06 09:40:06;;;;;;;2.50;2.40;;;;;;;17.90;nan;97037.28;4954817;28;20429;-62
2023/05/06 09:42:34;;;;;;;2.40;2.20;;;;;;;18.12;nan;97023.28;4898000;28;20697;-60
2023/05/06 09:45:04;;;;;;;2.47;2.37;;;;;;;18.26;nan;97031.88;4953896;28;20751;-60
2023/05/06 09:47:34;;;;;;;2.50;2.30;;;;;;;18.34;nan;97026.97;4923766;28;20534;-60
2023/05/06 09:50:02;;;;;;;2.93;2.73;;;;;;;18.94;nan;97029.41;4952644;28;20221;-62
2023/05/06 09:52:30;;;;;;;2.87;2.33;;;;;;;19.39;nan;97027.75;4941593;28;20216;-62
2023/05/06 09:54:59;;;;;;;3.40;2.37;;;;;;;19.79;nan;97028.59;4951427;28;20784;-62
2023/05/06 09:57:29;;;;;;;2.53;2.33;;;;;;;20.13;nan;97020.47;4917603;28;20487;-61
2023/05/06 09:59:58;;;;;;;3.03;2.60;;;;;;;20.19;nan;97016.78;4920538;28;20610;-62
2023/05/06 10:02:27;;;;;;;2.90;2.70;;;;;;;19.90;nan;97026.88;4943786;28;20205;-60
2023/05/06 10:04:56;;;;;;;2.10;2.00;;;;;;;19.75;nan;97025.59;4923380;28;20212;-62
2023/05/06 10:07:27;;;;;;;3.33;2.00;;;;;;;20.07;nan;97018.78;4949956;28;20319;-61
2023/05/06 10:09:56;;;;;;;3.63;1.80;;;;;;;19.83;nan;97029.72;4950939;28;20648;-63
2023/05/06 10:12:25;;;;;;;1.83;1.73;;;;;;;18.88;nan;97025.00;4909559;28;20241;-60
2023/05/06 10:14:53;;;;;;;3.30;3.10;;;;;;;19.00;nan;97023.09;4924016;28;20248;-61
2023/05/06 10:17:24;;;;;;;2.13;2.03;;;;;;;18.66;nan;97023.00;4951714;28;20222;-62
2023/05/06 10:19:57;;;;;;;3.70;2.60;;;;;;;18.42;nan;97019.59;4928126;28;20226;-61
2023/05/06 10:22:34;;;;;;;2.50;2.40;;;;;;;18.53;nan;97013.34;4946980;28;20670;-61
2023/05/06 10:25:05;;;;;;;2.13;2.03;;;;;;;18.33;nan;97016.47;4936688;28;20536;-61
2023/05/06 10:27:35;;;;;;;2.70;2.33;;;;;;;18.59;nan;97017.78;4945975;28;20411;-61
2023/05/06 10:30:03;;;;;;;2.37;2.17;;;;;;;18.46;nan;97007.31;4915445;28;20233;-61
2023/05/06 10:32:32;;;;;;;5.63;5.13;;;;;;;18.54;nan;97006.13;4929693;28;20684;-60
2023/05/06 10:35:08;;;;;;;2.90;2.70;;;;;;;19.21;nan;97004.66;4931928;28;20253;-64
2023/05/06 10:37:37;;;;;;;2.30;2.10;;;;;;;19.34;nan;97007.00;4945224;28;20416;-62
2023/05/06 10:40:08;;;;;;;1.97;1.87;;;;;;;19.36;nan;96993.31;4934968;28;20226;-63
2023/05/06 10:42:36;;;;;;;2.00;1.90;;;;;;;19.31;nan;97004.78;4951090;28;20391;-63
2023/05/06 10:45:05;;;;;;;2.27;2.07;;;;;;;19.40;nan;96993.63;4911602;28;20615;-61
2023/05/06 10:48:07;;;;;;;4.40;2.47;;;;;;;19.73;nan;97000.84;4929242;28;20349;-62
2023/05/06 10:50:38;;;;;;;3.87;2.10;;;;;;;19.41;nan;96990.72;4919466;28;20307;-63
2023/05/06 10:53:05;;;;;;;2.20;1.83;;;;;;;19.42;nan;96986.97;4950416;28;20213;-63
2023/05/06 10:55:35;;;;;;;2.80;1.60;;;;;;;19.78;nan;96992.03;4930430;28;20902;-64
2023/05/06 10:58:03;;;;;;;1.97;1.87;;;;;;;19.93;nan;96984.22;4953479;28;20276;-63
2023/05/06 11:00:32;;;;;;;10.20;3.80;;;;;;;20.05;nan;96981.38;4912634;28;20214;-64
2023/05/06 11:03:03;;;;;;;2.17;2.07;;;;;;;20.61;nan;96976.88;4910808;28;20291;-62
2023/05/06 11:05:31;;;;;;;3.63;2.20;;;;;;;20.81;nan;96987.06;4899547;28;20372;-62
2023/05/06 11:08:10;;;;;;;1.70;1.60;;;;;;;19.93;nan;96986.06;4957728;28;20205;-62
2023/05/06 11:10:38;;;;;;;1.90;1.80;;;;;;;20.26;nan;96978.94;4956772;28;20725;-62
2023/05/06 11:13:20;;;;;;;3.17;2.10;;;;;;;19.98;nan;96988.03;4960594;28;20757;-61
2023/05/06 11:15:50;;;;;;;2.60;2.40;;;;;;;19.93;nan;96978.84;4961334;28;20241;-62
2023/05/06 11:18:42;;;;;;;2.03;1.37;;;;;;;19.77;nan;96982.34;4957768;28;20240;-63
2023/05/06 11:21:38;;;;;;;3.27;1.77;;;;;;;19.23;nan;96978.34;4957089;28;20498;-62
2023/05/06 11:24:11;;;;;;;1.63;1.63;;;;;;;19.37;nan;96986.91;4963556;28;20210;-62
2023/05/06 11:26:43;;;;;;;2.07;1.97;;;;;;;19.35;nan;96987.13;4960375;28;20224;-62
2023/05/06 11:29:11;;;;;;;1.53;1.53;;;;;;;19.21;nan;96983.97;4962370;28;20237;-62
2023/05/06 11:31:40;;;;;;;1.50;1.40;;;;;;;18.83;nan;97001.56;4957848;28;20206;-64
2023/05/06 11:34:10;;;;;;;3.47;2.13;;;;;;;18.61;nan;96993.38;4961860;28;20206;-63
2023/05/06 11:36:46;;;;;;;3.37;2.00;;;;;;;18.56;nan;96991.44;4956696;28;20701;-64
2023/05/06 11:39:15;;;;;;;2.00;1.70;;;;;;;18.49;nan;96985.38;4958435;28;20842;-62
2023/05/06 11:41:43;;;;;;;1.93;1.83;;;;;;;18.51;nan;96989.47;4957154;28;20218;-64
2023/05/06 11:44:11;;;;;;;2.23;2.13;;;;;;;18.45;nan;96989.59;4950030;28;20214;-62
2023/05/06 11:46:39;;;;;;;2.83;1.93;;;;;;;18.49;nan;96990.75;4954470;28;20210;-64
2023/05/06 11:49:13;;;;;;;1.80;1.70;;;;;;;18.49;nan;96991.56;4959292;28;20230;-62
2023/05/06 11:51:40;;;;;;;2.37;2.17;;;;;;;18.46;nan;96994.75;4958172;28;20272;-65